createdAt,value
2023-05-14T00:00:06.567Z,13.12
2023-05-14T00:02:33.117Z,13.07
2023-05-14T00:04:59.710Z,13.01
2023-05-14T00:07:30.900Z,12.96
2023-05-14T00:09:58.394Z,12.99
2023-05-14T00:12:26.368Z,12.97
2023-05-14T00:14:53.655Z,12.96
2023-05-14T00:17:20.109Z,12.95
2023-05-14T00:19:46.643Z,12.88
2023-05-14T00:22:13.168Z,12.88
2023-05-14T00:24:39.897Z,12.89
2023-05-14T00:27:07.261Z,12.87
2023-05-14T00:29:33.890Z,12.79
2023-05-14T00:32:00.359Z,12.73
2023-05-14T00:34:26.906Z,12.73
2023-05-14T00:36:53.732Z,12.69
2023-05-14T00:39:20.318Z,12.63
2023-05-14T00:41:46.791Z,12.63
2023-05-14T00:44:13.262Z,12.56
2023-05-14T00:46:40.249Z,12.52
2023-05-14T00:49:06.904Z,12.53
2023-05-14T00:51:33.619Z,12.52
2023-05-14T00:54:00.633Z,12.49
2023-05-14T00:56:27.773Z,12.43
2023-05-14T00:58:54.325Z,12.37
2023-05-14T01:01:21.177Z,12.30
2023-05-14T01:03:49.045Z,12.24
2023-05-14T01:06:23.131Z,12.19
2023-05-14T01:09:06.486Z,12.15
2023-05-14T01:11:41.052Z,12.09
2023-05-14T01:14:14.287Z,12.05
2023-05-14T01:16:40.932Z,12.01
2023-05-14T01:19:17.009Z,11.98
2023-05-14T01:21:43.670Z,11.99
2023-05-14T01:24:10.379Z,11.97
2023-05-14T01:26:37.388Z,11.90
2023-05-14T01:29:18.512Z,11.89
2023-05-14T01:31:47.647Z,11.87
2023-05-14T01:34:15.810Z,11.85
2023-05-14T01:36:43.978Z,11.88
2023-05-14T01:39:12.007Z,11.87
2023-05-14T01:41:42.290Z,11.81
2023-05-14T01:44:11.906Z,11.78
2023-05-14T01:46:38.883Z,11.77
2023-05-14T01:49:05.659Z,11.73
2023-05-14T01:51:32.475Z,11.72
2023-05-14T01:53:59.101Z,11.68
2023-05-14T01:56:25.901Z,11.59
2023-05-14T01:58:52.747Z,11.63
2023-05-14T02:01:19.501Z,11.63
2023-05-14T02:03:46.044Z,11.57
2023-05-14T02:06:12.737Z,11.53
2023-05-14T02:08:39.201Z,11.49
2023-05-14T02:11:05.836Z,11.45
2023-05-14T02:13:32.342Z,11.45
2023-05-14T02:15:58.931Z,11.44
2023-05-14T02:18:25.722Z,11.46
2023-05-14T02:20:52.376Z,11.41
2023-05-14T02:23:20.602Z,11.34
2023-05-14T02:25:50.299Z,11.31
2023-05-14T02:28:16.983Z,11.29
2023-05-14T02:30:43.461Z,11.31
2023-05-14T02:33:10.154Z,11.34
2023-05-14T02:35:37.441Z,11.30
2023-05-14T02:38:04.312Z,11.30
2023-05-14T02:40:30.849Z,11.28
2023-05-14T02:42:57.408Z,11.22
2023-05-14T02:45:24.263Z,11.21
2023-05-14T02:47:50.867Z,11.18
2023-05-14T02:50:17.516Z,11.19
2023-05-14T02:52:44.151Z,11.17
2023-05-14T02:55:11.707Z,11.10
2023-05-14T02:57:38.291Z,11.06
2023-05-14T03:00:05.751Z,11.07
2023-05-14T03:02:32.974Z,11.08
2023-05-14T03:04:59.924Z,11.07
2023-05-14T03:07:26.385Z,11.03
2023-05-14T03:09:52.985Z,11.03
2023-05-14T03:12:21.128Z,10.97
2023-05-14T03:14:48.097Z,10.94
2023-05-14T03:17:14.586Z,10.94
2023-05-14T03:19:41.359Z,10.96
2023-05-14T03:22:07.986Z,10.93
2023-05-14T03:24:35.040Z,10.92
2023-05-14T03:27:01.523Z,10.93
2023-05-14T03:29:28.001Z,10.88
2023-05-14T03:31:54.741Z,10.86
2023-05-14T03:34:21.408Z,10.87
2023-05-14T03:36:47.996Z,10.90
2023-05-14T03:39:19.994Z,10.91
2023-05-14T03:41:47.703Z,10.90
2023-05-14T03:44:14.798Z,10.85
2023-05-14T03:46:41.532Z,10.81
2023-05-14T03:49:08.758Z,10.78
2023-05-14T03:51:35.522Z,10.81
2023-05-14T03:54:02.910Z,10.84
2023-05-14T03:56:29.537Z,10.83
2023-05-14T03:58:56.111Z,10.86
2023-05-14T04:01:22.599Z,10.86
2023-05-14T04:03:49.163Z,10.88
2023-05-14T04:06:16.174Z,10.87
2023-05-14T04:08:42.731Z,10.88
2023-05-14T04:11:09.304Z,10.88
2023-05-14T04:13:35.897Z,10.86
2023-05-14T04:16:02.525Z,10.85
2023-05-14T04:18:29.544Z,10.86
2023-05-14T04:20:56.063Z,10.85
2023-05-14T04:23:22.506Z,10.87
2023-05-14T04:25:49.234Z,10.87
2023-05-14T04:28:15.905Z,10.88
2023-05-14T04:30:42.425Z,10.87
2023-05-14T04:33:09.023Z,10.87
2023-05-14T04:35:35.968Z,10.88
2023-05-14T04:38:03.152Z,10.93
2023-05-14T04:40:31.228Z,10.97
2023-05-14T04:42:58.012Z,11.01
2023-05-14T04:45:24.581Z,11.08
2023-05-14T04:47:51.430Z,11.10
2023-05-14T04:50:18.268Z,11.12
2023-05-14T04:52:44.913Z,11.19
2023-05-14T04:55:11.431Z,11.25
2023-05-14T04:57:37.912Z,11.27
2023-05-14T05:00:09.546Z,11.34
2023-05-14T05:02:36.253Z,11.36
2023-05-14T05:05:04.187Z,11.41
2023-05-14T05:07:30.921Z,11.49
2023-05-14T05:09:57.528Z,11.48
2023-05-14T05:12:24.149Z,11.51
2023-05-14T05:14:50.751Z,11.55
2023-05-14T05:17:17.288Z,11.59
2023-05-14T05:19:44.616Z,11.66
2023-05-14T05:22:11.669Z,11.66
2023-05-14T05:24:38.255Z,11.65
2023-05-14T05:27:05.549Z,11.68
2023-05-14T05:29:32.320Z,11.71
2023-05-14T05:31:59.330Z,11.78
2023-05-14T05:34:25.952Z,11.77
2023-05-14T05:36:52.680Z,11.80
2023-05-14T05:39:19.233Z,11.81
2023-05-14T05:41:45.919Z,11.82
2023-05-14T05:44:13.573Z,11.76
2023-05-14T05:46:40.377Z,11.76
2023-05-14T05:49:07.096Z,11.76
2023-05-14T05:51:33.624Z,11.75
2023-05-14T05:54:00.209Z,11.78
2023-05-14T05:56:26.821Z,11.85
2023-05-14T05:58:53.398Z,11.85
2023-05-14T06:01:20.020Z,11.87
2023-05-14T06:03:48.397Z,11.90
2023-05-14T06:06:15.606Z,11.92
2023-05-14T06:08:42.114Z,11.98
2023-05-14T06:11:08.930Z,12.05
2023-05-14T06:13:35.436Z,12.17
2023-05-14T06:16:02.132Z,12.30
2023-05-14T06:18:28.726Z,12.34
2023-05-14T06:20:56.794Z,12.43
2023-05-14T06:23:23.352Z,12.68
2023-05-14T06:25:50.840Z,12.89
2023-05-14T06:28:17.652Z,12.88
2023-05-14T06:30:44.439Z,12.80
2023-05-14T06:33:12.972Z,12.88
2023-05-14T06:35:39.736Z,12.97
2023-05-14T06:38:06.606Z,13.04
2023-05-14T06:40:33.125Z,13.07
2023-05-14T06:43:00.365Z,13.17
2023-05-14T06:45:26.963Z,13.27
2023-05-14T06:47:53.698Z,13.40
2023-05-14T06:50:20.510Z,13.60
2023-05-14T06:52:47.175Z,13.72
2023-05-14T06:55:13.972Z,13.59
2023-05-14T06:57:40.884Z,13.54
2023-05-14T07:00:08.623Z,13.74
2023-05-14T07:02:35.495Z,13.99
2023-05-14T07:05:03.051Z,13.88
2023-05-14T07:07:29.724Z,13.92
2023-05-14T07:09:56.318Z,14.02
2023-05-14T07:12:22.864Z,14.21
2023-05-14T07:14:50.274Z,14.36
2023-05-14T07:17:17.094Z,14.43
2023-05-14T07:19:43.812Z,14.60
2023-05-14T07:22:10.550Z,14.72
2023-05-14T07:24:37.192Z,14.79
2023-05-14T07:27:04.074Z,14.90
2023-05-14T07:29:30.953Z,14.89
2023-05-14T07:31:57.441Z,14.85
2023-05-14T07:34:24.217Z,14.80
2023-05-14T07:36:50.826Z,14.89
2023-05-14T07:39:17.558Z,15.02
2023-05-14T07:41:44.402Z,15.14
2023-05-14T07:44:17.110Z,15.16
2023-05-14T07:46:43.781Z,15.23
2023-05-14T07:49:10.629Z,15.21
2023-05-14T07:51:37.238Z,15.25
2023-05-14T07:54:04.165Z,15.28
2023-05-14T07:56:30.745Z,15.25
2023-05-14T07:58:57.372Z,15.36
2023-05-14T08:01:24.020Z,15.51
2023-05-14T08:03:50.903Z,15.61
2023-05-14T08:06:17.718Z,15.73
2023-05-14T08:08:44.303Z,15.69
2023-05-14T08:11:11.301Z,15.75
2023-05-14T08:13:38.153Z,15.67
2023-05-14T08:16:05.081Z,15.62
2023-05-14T08:18:31.735Z,15.65
2023-05-14T08:20:58.330Z,15.76
2023-05-14T08:23:24.889Z,15.87
2023-05-14T08:25:51.492Z,15.83
2023-05-14T08:28:18.206Z,15.99
2023-05-14T08:30:44.789Z,16.13
2023-05-14T08:33:11.558Z,16.21
2023-05-14T08:35:38.282Z,16.30
2023-05-14T08:38:04.946Z,16.18
2023-05-14T08:40:31.957Z,16.38
2023-05-14T08:43:00.756Z,16.40
2023-05-14T08:45:34.018Z,16.25
2023-05-14T08:48:09.142Z,16.41
2023-05-14T08:50:36.190Z,16.52
2023-05-14T08:53:02.955Z,16.54
2023-05-14T08:55:30.040Z,16.54
2023-05-14T08:57:56.820Z,16.60
2023-05-14T09:00:24.525Z,16.60
2023-05-14T09:02:51.823Z,16.67
2023-05-14T09:05:19.565Z,16.75
2023-05-14T09:07:47.008Z,16.70
2023-05-14T09:10:15.511Z,16.76
2023-05-14T09:12:42.290Z,16.79
2023-05-14T09:15:09.299Z,16.87
2023-05-14T09:17:36.148Z,16.83
2023-05-14T09:20:04.044Z,16.85
2023-05-14T09:22:33.679Z,16.81
2023-05-14T09:25:09.642Z,16.76
2023-05-14T09:27:36.663Z,16.76
2023-05-14T09:30:11.053Z,16.81
2023-05-14T09:32:39.698Z,16.92
2023-05-14T09:35:23.234Z,17.01
2023-05-14T09:37:52.383Z,17.09
2023-05-14T09:40:20.947Z,17.09
2023-05-14T09:42:51.055Z,17.04
2023-05-14T09:45:17.760Z,17.14
2023-05-14T09:47:45.357Z,17.24
2023-05-14T09:50:12.662Z,17.28
2023-05-14T09:52:39.462Z,17.30
2023-05-14T09:55:06.589Z,17.49
2023-05-14T09:57:33.667Z,17.57
2023-05-14T10:00:00.326Z,17.61
2023-05-14T10:02:37.413Z,17.62
2023-05-14T10:05:07.857Z,17.71
2023-05-14T10:07:42.399Z,17.80
2023-05-14T10:10:12.952Z,17.96
2023-05-14T10:12:40.833Z,17.97
2023-05-14T10:15:16.707Z,17.98
2023-05-14T10:17:48.215Z,18.12
2023-05-14T10:20:17.146Z,18.12
2023-05-14T10:22:43.986Z,18.21
2023-05-14T10:25:11.452Z,18.26
2023-05-14T10:27:38.503Z,18.34
2023-05-14T10:30:11.938Z,18.37
2023-05-14T10:32:39.098Z,18.54
2023-05-14T10:35:20.820Z,18.48
2023-05-14T10:37:51.182Z,18.57
2023-05-14T10:40:19.122Z,18.83
2023-05-14T10:42:47.060Z,18.99
2023-05-14T10:45:15.367Z,19.17
2023-05-14T10:47:48.877Z,19.18
2023-05-14T10:50:17.573Z,19.32
2023-05-14T10:52:45.728Z,19.26
2023-05-14T10:55:17.026Z,19.16
2023-05-14T10:57:45.670Z,19.24
2023-05-14T11:00:14.134Z,19.34
2023-05-14T11:02:44.768Z,19.26
2023-05-14T11:05:17.406Z,19.46
2023-05-14T11:07:49.386Z,19.55
2023-05-14T11:10:22.023Z,19.65
2023-05-14T11:12:51.007Z,19.69
2023-05-14T11:15:20.650Z,19.71
2023-05-14T11:17:48.681Z,19.96
2023-05-14T11:20:16.745Z,20.19
2023-05-14T11:22:44.378Z,20.63
2023-05-14T11:25:14.523Z,20.58
2023-05-14T11:27:43.349Z,20.61
2023-05-14T11:30:14.070Z,20.89
2023-05-14T11:32:41.663Z,20.77
2023-05-14T11:35:08.672Z,20.62
2023-05-14T11:37:35.277Z,20.69
2023-05-14T11:40:01.964Z,20.71
2023-05-14T11:42:28.464Z,20.72
2023-05-14T11:44:55.134Z,20.63
2023-05-14T11:47:22.407Z,20.71
2023-05-14T11:49:49.598Z,20.61
2023-05-14T11:52:19.502Z,20.47
2023-05-14T11:54:46.997Z,20.57
2023-05-14T11:57:17.279Z,20.67
2023-05-14T11:59:44.254Z,20.79
2023-05-14T12:02:12.541Z,20.95
2023-05-14T12:04:40.523Z,21.02
2023-05-14T12:07:15.062Z,21.15
2023-05-14T12:09:49.117Z,20.98
2023-05-14T12:12:19.012Z,21.20
2023-05-14T12:14:45.697Z,21.37
2023-05-14T12:17:23.056Z,21.05
2023-05-14T12:19:51.531Z,21.17
2023-05-14T12:22:19.994Z,21.41
2023-05-14T12:24:57.303Z,21.63
2023-05-14T12:27:28.577Z,21.53
2023-05-14T12:30:20.605Z,21.59
2023-05-14T12:32:51.385Z,21.61
2023-05-14T12:35:18.383Z,21.85
2023-05-14T12:37:44.899Z,21.99
2023-05-14T12:40:11.808Z,21.98
2023-05-14T12:42:38.413Z,22.09
2023-05-14T12:45:08.023Z,22.05
2023-05-14T12:47:35.430Z,22.17
2023-05-14T12:50:02.413Z,22.21
2023-05-14T12:54:59.112Z,22.04
2023-05-14T12:57:26.993Z,22.18
2023-05-14T12:59:53.688Z,22.12
2023-05-14T13:02:20.650Z,22.12
2023-05-14T13:04:47.377Z,22.13
2023-05-14T13:07:14.094Z,22.14
2023-05-14T13:09:40.584Z,22.11
2023-05-14T13:12:07.567Z,22.14
2023-05-14T13:14:34.139Z,22.41
2023-05-14T13:17:01.033Z,22.46
2023-05-14T13:19:28.002Z,22.30
2023-05-14T13:21:54.517Z,22.43
2023-05-14T13:24:21.084Z,22.70
2023-05-14T13:26:47.686Z,22.62
2023-05-14T13:29:14.198Z,22.70
2023-05-14T13:31:40.770Z,22.76
2023-05-14T13:34:08.096Z,22.63
2023-05-14T13:36:39.492Z,22.59
2023-05-14T13:39:06.884Z,22.72
2023-05-14T13:41:37.795Z,22.90
2023-05-14T13:44:04.717Z,23.06
2023-05-14T13:46:31.244Z,23.26
2023-05-14T13:48:57.748Z,23.23
2023-05-14T13:51:24.210Z,23.02
2023-05-14T13:53:51.032Z,22.76
2023-05-14T13:56:17.559Z,22.60
2023-05-14T13:58:44.126Z,22.62
2023-05-14T14:01:10.791Z,22.66
2023-05-14T14:03:37.316Z,22.67
2023-05-14T14:06:03.886Z,22.66
2023-05-14T14:08:31.178Z,22.73
2023-05-14T14:10:57.829Z,22.67
2023-05-14T14:13:24.460Z,22.67
2023-05-14T14:15:51.301Z,22.74
2023-05-14T14:18:17.956Z,22.79
2023-05-14T14:20:44.500Z,22.68
2023-05-14T14:23:11.059Z,22.58
2023-05-14T14:25:37.553Z,22.65
2023-05-14T14:28:04.060Z,22.64
2023-05-14T14:30:30.567Z,22.66
2023-05-14T14:32:57.257Z,22.50
2023-05-14T14:35:24.083Z,22.28
2023-05-14T14:37:53.644Z,22.43
2023-05-14T14:40:20.275Z,22.72
2023-05-14T14:42:46.947Z,22.73
2023-05-14T14:45:13.591Z,22.82
2023-05-14T14:47:44.694Z,23.12
2023-05-14T14:50:12.515Z,23.31
2023-05-14T14:52:39.730Z,23.44
2023-05-14T14:55:06.763Z,23.30
2023-05-14T14:57:33.269Z,23.11
2023-05-14T15:00:00.872Z,22.90
2023-05-14T15:02:28.896Z,22.88
2023-05-14T15:04:55.793Z,22.78
2023-05-14T15:07:22.686Z,22.63
2023-05-14T15:09:49.162Z,22.56
2023-05-14T15:12:17.062Z,22.71
2023-05-14T15:14:43.549Z,22.73
2023-05-14T15:17:10.498Z,22.77
2023-05-14T15:19:37.098Z,22.91
2023-05-14T15:22:04.190Z,22.87
2023-05-14T15:24:30.835Z,22.70
2023-05-14T15:26:57.319Z,22.63
2023-05-14T15:29:23.875Z,22.41
2023-05-14T15:31:50.538Z,22.32
2023-05-14T15:34:17.178Z,22.33
2023-05-14T15:36:43.631Z,22.29
2023-05-14T15:39:12.984Z,22.38
2023-05-14T15:41:39.579Z,22.35
2023-05-14T15:44:06.246Z,22.30
2023-05-14T15:46:32.867Z,22.06
2023-05-14T15:48:59.396Z,22.08
2023-05-14T15:51:25.954Z,22.08
2023-05-14T15:53:55.333Z,22.28
2023-05-14T15:56:22.840Z,22.29
2023-05-14T15:58:50.091Z,22.09
2023-05-14T16:01:16.887Z,22.07
2023-05-14T16:03:43.684Z,22.07
2023-05-14T16:06:11.534Z,22.13
2023-05-14T16:08:38.309Z,22.21
2023-05-14T16:11:05.540Z,22.29
2023-05-14T16:13:32.375Z,22.43
2023-05-14T16:15:59.547Z,22.38
2023-05-14T16:18:26.365Z,22.29
2023-05-14T16:20:53.472Z,22.21
2023-05-14T16:23:19.964Z,22.10
2023-05-14T16:25:46.629Z,22.09
2023-05-14T16:28:13.728Z,21.90
2023-05-14T16:30:40.385Z,21.90
2023-05-14T16:33:06.968Z,22.01
2023-05-14T16:35:33.951Z,21.97
2023-05-14T16:38:00.610Z,21.80
2023-05-14T16:40:27.174Z,21.70
2023-05-14T16:42:53.660Z,21.51
2023-05-14T16:45:20.430Z,21.45
2023-05-14T16:47:47.050Z,21.40
2023-05-14T16:50:13.556Z,21.35
2023-05-14T16:52:40.130Z,21.37
2023-05-14T16:55:07.154Z,21.18
2023-05-14T16:57:34.431Z,21.13
2023-05-14T17:00:01.196Z,20.96
2023-05-14T17:02:27.830Z,20.89
2023-05-14T17:04:55.245Z,20.86
2023-05-14T17:07:21.793Z,20.81
2023-05-14T17:09:48.702Z,20.64
2023-05-14T17:12:15.417Z,20.44
2023-05-14T17:14:42.044Z,20.36
2023-05-14T17:17:08.649Z,20.32
2023-05-14T17:19:35.178Z,20.19
2023-05-14T17:22:01.793Z,20.11
2023-05-14T17:24:28.322Z,19.97
2023-05-14T17:26:54.799Z,19.85
2023-05-14T17:29:21.356Z,19.62
2023-05-14T17:31:48.721Z,19.54
2023-05-14T17:34:16.198Z,19.43
2023-05-14T17:36:42.805Z,19.47
2023-05-14T17:39:09.497Z,19.38
2023-05-14T17:41:35.925Z,19.27
2023-05-14T17:44:02.401Z,19.22
2023-05-14T17:46:29.857Z,19.06
2023-05-14T17:48:58.802Z,18.86
2023-05-14T17:51:25.366Z,18.70
2023-05-14T17:53:51.829Z,18.62
2023-05-14T17:56:18.890Z,18.61
2023-05-14T17:58:47.041Z,18.65
2023-05-14T18:01:13.588Z,18.50
2023-05-14T18:03:40.339Z,18.39
2023-05-14T18:06:07.088Z,18.33
2023-05-14T18:08:33.629Z,18.21
2023-05-14T18:11:00.922Z,18.28
2023-05-14T18:13:27.595Z,18.12
2023-05-14T18:15:56.430Z,18.14
2023-05-14T18:18:24.005Z,18.07
2023-05-14T18:20:51.949Z,18.03
2023-05-14T18:23:18.707Z,17.92
2023-05-14T18:25:45.272Z,17.76
2023-05-14T18:28:11.876Z,17.66
2023-05-14T18:30:38.442Z,17.62
2023-05-14T18:33:04.981Z,17.47
2023-05-14T18:35:31.520Z,17.45
2023-05-14T18:37:57.962Z,17.34
2023-05-14T18:40:24.500Z,17.29
2023-05-14T18:42:51.088Z,17.18
2023-05-14T18:45:17.764Z,17.06
2023-05-14T18:47:44.320Z,16.95
2023-05-14T18:50:11.113Z,16.90
2023-05-14T18:52:38.295Z,16.84
2023-05-14T18:55:05.200Z,16.83
2023-05-14T18:57:34.789Z,16.74
2023-05-14T19:00:02.078Z,16.62
2023-05-14T19:02:28.913Z,16.49
2023-05-14T19:04:55.608Z,16.35
2023-05-14T19:07:22.471Z,16.28
2023-05-14T19:09:48.974Z,16.32
2023-05-14T19:12:16.089Z,16.21
2023-05-14T19:14:42.827Z,15.99
2023-05-14T19:17:09.434Z,15.89
2023-05-14T19:19:36.506Z,15.77
2023-05-14T19:22:03.100Z,15.71
2023-05-14T19:24:30.235Z,15.65
2023-05-14T19:26:56.975Z,15.66
2023-05-14T19:29:23.438Z,15.58
2023-05-14T19:31:50.054Z,15.51
2023-05-14T19:34:16.876Z,15.50
2023-05-14T19:36:43.543Z,15.40
2023-05-14T19:39:10.908Z,15.30
2023-05-14T19:41:37.718Z,15.32
2023-05-14T19:44:04.199Z,15.17
2023-05-14T19:46:30.798Z,15.18
2023-05-14T19:48:57.356Z,15.23
2023-05-14T19:51:25.250Z,15.20
2023-05-14T19:53:51.818Z,15.10
2023-05-14T19:56:18.359Z,15.07
2023-05-14T19:58:44.818Z,15.05
2023-05-14T20:01:12.051Z,15.04
2023-05-14T20:03:38.772Z,14.97
2023-05-14T20:06:06.665Z,14.88
2023-05-14T20:08:33.403Z,14.73
2023-05-14T20:11:00.114Z,14.79
2023-05-14T20:13:26.654Z,14.68
2023-05-14T20:15:55.076Z,14.69
2023-05-14T20:18:21.810Z,14.69
2023-05-14T20:20:49.075Z,14.64
2023-05-14T20:23:15.941Z,14.57
2023-05-14T20:25:43.097Z,14.57
2023-05-14T20:28:10.091Z,14.56
2023-05-14T20:30:36.891Z,14.55
2023-05-14T20:33:04.037Z,14.54
2023-05-14T20:35:30.635Z,14.44
2023-05-14T20:37:57.492Z,14.42
2023-05-14T20:40:24.695Z,14.39
2023-05-14T20:42:51.616Z,14.40
2023-05-14T20:45:18.246Z,14.29
2023-05-14T20:47:44.934Z,14.24
2023-05-14T20:50:11.825Z,14.20
2023-05-14T20:52:38.389Z,14.19
2023-05-14T20:55:05.550Z,14.16
2023-05-14T20:57:32.001Z,14.12
2023-05-14T20:59:58.693Z,14.08
2023-05-14T21:02:25.250Z,14.07
2023-05-14T21:04:52.231Z,14.03
2023-05-14T21:07:18.776Z,13.98
2023-05-14T21:09:50.776Z,13.91
2023-05-14T21:12:17.330Z,13.93
2023-05-14T21:14:43.921Z,13.92
2023-05-14T21:17:10.700Z,13.94
2023-05-14T21:19:37.244Z,13.89
2023-05-14T21:22:03.852Z,13.88
2023-05-14T21:24:30.309Z,13.90
2023-05-14T21:26:56.843Z,13.86
2023-05-14T21:29:23.371Z,13.83
2023-05-14T21:31:50.385Z,13.78
2023-05-14T21:34:16.903Z,13.72
2023-05-14T21:36:43.406Z,13.72
2023-05-14T21:39:09.898Z,13.69
2023-05-14T21:41:36.450Z,13.66
2023-05-14T21:44:02.939Z,13.60
2023-05-14T21:46:30.272Z,13.58
2023-05-14T21:48:57.125Z,13.54
2023-05-14T21:51:24.215Z,13.53
2023-05-14T21:53:50.701Z,13.50
2023-05-14T21:56:17.196Z,13.48
2023-05-14T21:58:44.592Z,13.46
2023-05-14T22:01:11.617Z,13.44
2023-05-14T22:03:38.329Z,13.41
2023-05-14T22:06:05.362Z,13.37
2023-05-14T22:08:32.293Z,13.32
2023-05-14T22:10:58.762Z,13.28
2023-05-14T22:13:25.293Z,13.27
2023-05-14T22:16:01.488Z,13.19
2023-05-14T22:18:36.668Z,13.15
2023-05-14T22:21:03.665Z,13.13
2023-05-14T22:23:30.391Z,13.13
2023-05-14T22:25:57.429Z,13.14
2023-05-14T22:28:24.125Z,13.11
2023-05-14T22:30:50.806Z,13.08
2023-05-14T22:33:19.317Z,13.04
2023-05-14T22:35:45.899Z,13.02
2023-05-14T22:38:12.838Z,13.02
2023-05-14T22:40:39.436Z,13.02
2023-05-14T22:43:05.914Z,13.01
2023-05-14T22:45:32.395Z,13.03
2023-05-14T22:47:59.336Z,13.03
2023-05-14T22:50:25.948Z,12.99
2023-05-14T22:52:52.459Z,13.00
2023-05-14T22:55:19.060Z,12.99
2023-05-14T22:57:45.855Z,12.96
2023-05-14T23:00:13.030Z,12.95
2023-05-14T23:02:39.597Z,12.91
2023-05-14T23:05:08.116Z,12.91
2023-05-14T23:07:35.304Z,12.92
2023-05-14T23:10:01.998Z,12.91
2023-05-14T23:12:28.473Z,12.86
2023-05-14T23:14:55.010Z,12.78
2023-05-14T23:17:21.541Z,12.78
2023-05-14T23:19:50.428Z,12.79
2023-05-14T23:22:16.960Z,12.71
2023-05-14T23:24:43.535Z,12.69
2023-05-14T23:27:11.357Z,12.69
2023-05-14T23:29:38.055Z,12.65
2023-05-14T23:32:04.939Z,12.64
2023-05-14T23:34:31.485Z,12.65
2023-05-14T23:36:58.011Z,12.64
2023-05-14T23:39:24.690Z,12.68
2023-05-14T23:41:51.798Z,12.71
2023-05-14T23:44:18.367Z,12.71
2023-05-14T23:46:45.004Z,12.70
2023-05-14T23:49:12.254Z,12.65
2023-05-14T23:51:38.814Z,12.62
2023-05-14T23:54:05.495Z,12.59
2023-05-14T23:56:32.138Z,12.59
2023-05-14T23:58:58.731Z,12.57
